sensor_id;sensor_type;location;lat;lon;timestamp;P1;durP1;ratioP1;P2;durP2;ratioP2
22916;SDS011;11624;53.250;7.456;2023-10-09T00:00:33;11.63;;;3.78;;
22916;SDS011;11624;53.250;7.456;2023-10-09T00:03:22;9.55;;;3.03;;
22916;SDS011;11624;53.250;7.456;2023-10-09T00:05:50;10.75;;;3.33;;
22916;SDS011;11624;53.250;7.456;2023-10-09T00:08:21;12.80;;;3.78;;
22916;SDS011;11624;53.250;7.456;2023-10-09T00:11:00;13.27;;;3.72;;
22916;SDS011;11624;53.250;7.456;2023-10-09T00:13:43;10.75;;;3.25;;
22916;SDS011;11624;53.250;7.456;2023-10-09T00:16:20;12.15;;;3.72;;
22916;SDS011;11624;53.250;7.456;2023-10-09T00:19:00;13.93;;;4.05;;
22916;SDS011;11624;53.250;7.456;2023-10-09T00:21:40;11.13;;;3.75;;
22916;SDS011;11624;53.250;7.456;2023-10-09T00:24:09;13.10;;;3.85;;
22916;SDS011;11624;53.250;7.456;2023-10-09T00:26:44;10.20;;;3.47;;
22916;SDS011;11624;53.250;7.456;2023-10-09T00:29:15;12.73;;;3.72;;
22916;SDS011;11624;53.250;7.456;2023-10-09T00:31:49;15.88;;;3.85;;
22916;SDS011;11624;53.250;7.456;2023-10-09T00:34:22;12.13;;;3.58;;
22916;SDS011;11624;53.250;7.456;2023-10-09T00:36:53;11.13;;;4.00;;
22916;SDS011;11624;53.250;7.456;2023-10-09T00:39:22;11.63;;;4.03;;
22916;SDS011;11624;53.250;7.456;2023-10-09T00:42:09;8.32;;;3.53;;
22916;SDS011;11624;53.250;7.456;2023-10-09T00:44:41;10.55;;;3.85;;
22916;SDS011;11624;53.250;7.456;2023-10-09T00:47:10;11.70;;;3.90;;
22916;SDS011;11624;53.250;7.456;2023-10-09T00:49:50;13.43;;;4.68;;
22916;SDS011;11624;53.250;7.456;2023-10-09T00:52:27;12.27;;;4.22;;
22916;SDS011;11624;53.250;7.456;2023-10-09T00:55:03;11.18;;;4.25;;
22916;SDS011;11624;53.250;7.456;2023-10-09T00:57:43;11.68;;;3.88;;
22916;SDS011;11624;53.250;7.456;2023-10-09T01:00:23;14.88;;;4.05;;
22916;SDS011;11624;53.250;7.456;2023-10-09T01:03:00;11.40;;;3.65;;
22916;SDS011;11624;53.250;7.456;2023-10-09T01:05:46;11.80;;;4.50;;
22916;SDS011;11624;53.250;7.456;2023-10-09T01:08:25;15.88;;;4.38;;
22916;SDS011;11624;53.250;7.456;2023-10-09T01:10:57;10.57;;;4.25;;
22916;SDS011;11624;53.250;7.456;2023-10-09T01:13:37;18.70;;;4.30;;
22916;SDS011;11624;53.250;7.456;2023-10-09T01:16:20;14.55;;;4.35;;
22916;SDS011;11624;53.250;7.456;2023-10-09T01:18:50;16.17;;;4.63;;
22916;SDS011;11624;53.250;7.456;2023-10-09T01:21:20;13.80;;;3.80;;
22916;SDS011;11624;53.250;7.456;2023-10-09T01:23:52;14.07;;;4.28;;
22916;SDS011;11624;53.250;7.456;2023-10-09T01:26:32;11.20;;;3.88;;
22916;SDS011;11624;53.250;7.456;2023-10-09T01:29:06;15.30;;;4.53;;
22916;SDS011;11624;53.250;7.456;2023-10-09T01:31:37;16.63;;;4.72;;
22916;SDS011;11624;53.250;7.456;2023-10-09T01:34:10;12.55;;;3.85;;
22916;SDS011;11624;53.250;7.456;2023-10-09T01:36:41;10.57;;;3.67;;
22916;SDS011;11624;53.250;7.456;2023-10-09T01:39:11;16.33;;;4.88;;
22916;SDS011;11624;53.250;7.456;2023-10-09T01:41:50;13.60;;;4.43;;
22916;SDS011;11624;53.250;7.456;2023-10-09T01:44:25;13.93;;;4.47;;
22916;SDS011;11624;53.250;7.456;2023-10-09T01:46:57;15.77;;;4.65;;
22916;SDS011;11624;53.250;7.456;2023-10-09T01:49:25;14.15;;;4.68;;
22916;SDS011;11624;53.250;7.456;2023-10-09T01:52:00;12.50;;;4.60;;
22916;SDS011;11624;53.250;7.456;2023-10-09T01:54:36;15.82;;;4.93;;
22916;SDS011;11624;53.250;7.456;2023-10-09T01:57:05;13.07;;;4.45;;
22916;SDS011;11624;53.250;7.456;2023-10-09T01:59:36;15.10;;;4.63;;
22916;SDS011;11624;53.250;7.456;2023-10-09T02:02:10;13.73;;;4.57;;
22916;SDS011;11624;53.250;7.456;2023-10-09T02:04:53;14.63;;;4.78;;
22916;SDS011;11624;53.250;7.456;2023-10-09T02:07:33;17.33;;;4.97;;
22916;SDS011;11624;53.250;7.456;2023-10-09T02:10:10;15.02;;;4.40;;
22916;SDS011;11624;53.250;7.456;2023-10-09T02:12:48;14.05;;;4.72;;
22916;SDS011;11624;53.250;7.456;2023-10-09T02:15:20;12.60;;;4.65;;
22916;SDS011;11624;53.250;7.456;2023-10-09T02:18:08;13.57;;;4.25;;
22916;SDS011;11624;53.250;7.456;2023-10-09T02:20:46;14.75;;;4.57;;
22916;SDS011;11624;53.250;7.456;2023-10-09T02:23:22;15.18;;;4.68;;
22916;SDS011;11624;53.250;7.456;2023-10-09T02:25:58;15.70;;;4.72;;
22916;SDS011;11624;53.250;7.456;2023-10-09T02:28:31;16.13;;;4.95;;
22916;SDS011;11624;53.250;7.456;2023-10-09T02:31:00;15.93;;;5.13;;
22916;SDS011;11624;53.250;7.456;2023-10-09T02:33:37;15.30;;;5.22;;
22916;SDS011;11624;53.250;7.456;2023-10-09T02:36:07;14.75;;;4.65;;
22916;SDS011;11624;53.250;7.456;2023-10-09T02:38:36;12.82;;;4.72;;
22916;SDS011;11624;53.250;7.456;2023-10-09T02:41:09;19.17;;;5.57;;
22916;SDS011;11624;53.250;7.456;2023-10-09T02:43:50;19.92;;;6.03;;
22916;SDS011;11624;53.250;7.456;2023-10-09T02:46:22;15.88;;;5.88;;
22916;SDS011;11624;53.250;7.456;2023-10-09T02:48:57;19.77;;;5.72;;
22916;SDS011;11624;53.250;7.456;2023-10-09T02:51:26;24.38;;;6.40;;
22916;SDS011;11624;53.250;7.456;2023-10-09T02:54:08;20.25;;;6.10;;
22916;SDS011;11624;53.250;7.456;2023-10-09T02:56:53;19.80;;;5.53;;
22916;SDS011;11624;53.250;7.456;2023-10-09T02:59:23;17.23;;;6.00;;
22916;SDS011;11624;53.250;7.456;2023-10-09T03:01:52;16.35;;;6.25;;
22916;SDS011;11624;53.250;7.456;2023-10-09T03:04:20;17.25;;;5.55;;
22916;SDS011;11624;53.250;7.456;2023-10-09T03:06:51;17.27;;;6.97;;
22916;SDS011;11624;53.250;7.456;2023-10-09T03:09:24;15.38;;;5.57;;
22916;SDS011;11624;53.250;7.456;2023-10-09T03:11:57;16.95;;;5.95;;
22916;SDS011;11624;53.250;7.456;2023-10-09T03:14:30;21.52;;;6.18;;
22916;SDS011;11624;53.250;7.456;2023-10-09T03:17:02;20.10;;;6.20;;
22916;SDS011;11624;53.250;7.456;2023-10-09T03:19:31;21.23;;;7.00;;
22916;SDS011;11624;53.250;7.456;2023-10-09T03:22:05;21.23;;;7.32;;
22916;SDS011;11624;53.250;7.456;2023-10-09T03:24:37;19.42;;;6.53;;
22916;SDS011;11624;53.250;7.456;2023-10-09T03:27:09;21.25;;;7.05;;
22916;SDS011;11624;53.250;7.456;2023-10-09T03:29:40;26.55;;;8.20;;
22916;SDS011;11624;53.250;7.456;2023-10-09T03:32:15;22.25;;;8.32;;
22916;SDS011;11624;53.250;7.456;2023-10-09T03:34:46;20.42;;;7.80;;
22916;SDS011;11624;53.250;7.456;2023-10-09T03:37:18;19.85;;;7.65;;
22916;SDS011;11624;53.250;7.456;2023-10-09T03:40:00;25.63;;;8.10;;
22916;SDS011;11624;53.250;7.456;2023-10-09T03:42:35;21.40;;;7.85;;
22916;SDS011;11624;53.250;7.456;2023-10-09T03:45:05;26.45;;;9.52;;
22916;SDS011;11624;53.250;7.456;2023-10-09T03:47:40;25.95;;;8.40;;
22916;SDS011;11624;53.250;7.456;2023-10-09T03:50:10;26.80;;;8.43;;
22916;SDS011;11624;53.250;7.456;2023-10-09T03:52:50;24.60;;;8.68;;
22916;SDS011;11624;53.250;7.456;2023-10-09T03:55:21;26.77;;;9.82;;
22916;SDS011;11624;53.250;7.456;2023-10-09T03:57:56;26.05;;;9.20;;
22916;SDS011;11624;53.250;7.456;2023-10-09T04:00:28;29.23;;;10.10;;
22916;SDS011;11624;53.250;7.456;2023-10-09T04:02:58;30.45;;;10.25;;
22916;SDS011;11624;53.250;7.456;2023-10-09T04:05:27;28.02;;;9.57;;
22916;SDS011;11624;53.250;7.456;2023-10-09T04:07:55;31.85;;;10.75;;
22916;SDS011;11624;53.250;7.456;2023-10-09T04:10:25;34.08;;;10.75;;
22916;SDS011;11624;53.250;7.456;2023-10-09T04:13:22;36.42;;;12.15;;
22916;SDS011;11624;53.250;7.456;2023-10-09T04:15:59;36.55;;;11.43;;
22916;SDS011;11624;53.250;7.456;2023-10-09T04:18:36;35.10;;;11.75;;
22916;SDS011;11624;53.250;7.456;2023-10-09T04:21:07;38.80;;;12.20;;
22916;SDS011;11624;53.250;7.456;2023-10-09T04:23:46;34.55;;;11.95;;
22916;SDS011;11624;53.250;7.456;2023-10-09T04:26:32;39.97;;;13.38;;
22916;SDS011;11624;53.250;7.456;2023-10-09T04:29:05;36.08;;;13.02;;
22916;SDS011;11624;53.250;7.456;2023-10-09T04:31:37;35.38;;;12.88;;
22916;SDS011;11624;53.250;7.456;2023-10-09T04:34:05;35.97;;;12.95;;
22916;SDS011;11624;53.250;7.456;2023-10-09T04:36:55;39.33;;;14.23;;
22916;SDS011;11624;53.250;7.456;2023-10-09T04:39:27;37.20;;;14.10;;
22916;SDS011;11624;53.250;7.456;2023-10-09T04:42:13;44.65;;;13.68;;
22916;SDS011;11624;53.250;7.456;2023-10-09T04:45:06;37.85;;;14.75;;
22916;SDS011;11624;53.250;7.456;2023-10-09T04:48:01;44.78;;;14.27;;
22916;SDS011;11624;53.250;7.456;2023-10-09T04:50:34;45.17;;;15.88;;
22916;SDS011;11624;53.250;7.456;2023-10-09T04:53:34;42.80;;;15.32;;
22916;SDS011;11624;53.250;7.456;2023-10-09T04:56:11;40.13;;;16.45;;
22916;SDS011;11624;53.250;7.456;2023-10-09T04:58:42;41.40;;;15.55;;
22916;SDS011;11624;53.250;7.456;2023-10-09T05:01:14;43.60;;;16.15;;
22916;SDS011;11624;53.250;7.456;2023-10-09T05:03:43;48.33;;;16.60;;
22916;SDS011;11624;53.250;7.456;2023-10-09T05:06:12;46.40;;;16.10;;
22916;SDS011;11624;53.250;7.456;2023-10-09T05:09:10;40.90;;;15.30;;
22916;SDS011;11624;53.250;7.456;2023-10-09T05:11:42;48.55;;;17.15;;
22916;SDS011;11624;53.250;7.456;2023-10-09T05:14:36;43.95;;;15.77;;
22916;SDS011;11624;53.250;7.456;2023-10-09T05:17:15;40.70;;;15.45;;
22916;SDS011;11624;53.250;7.456;2023-10-09T05:19:43;43.95;;;16.85;;
22916;SDS011;11624;53.250;7.456;2023-10-09T05:22:42;44.17;;;14.88;;
22916;SDS011;11624;53.250;7.456;2023-10-09T05:25:24;44.17;;;16.65;;
22916;SDS011;11624;53.250;7.456;2023-10-09T05:28:22;43.83;;;15.30;;
22916;SDS011;11624;53.250;7.456;2023-10-09T05:30:58;50.47;;;16.25;;
22916;SDS011;11624;53.250;7.456;2023-10-09T05:33:37;41.83;;;16.55;;
22916;SDS011;11624;53.250;7.456;2023-10-09T05:36:05;42.38;;;15.65;;
22916;SDS011;11624;53.250;7.456;2023-10-09T05:38:58;44.80;;;16.63;;
22916;SDS011;11624;53.250;7.456;2023-10-09T05:41:44;40.17;;;16.42;;
22916;SDS011;11624;53.250;7.456;2023-10-09T05:44:19;53.05;;;17.02;;
22916;SDS011;11624;53.250;7.456;2023-10-09T05:47:04;48.05;;;17.55;;
22916;SDS011;11624;53.250;7.456;2023-10-09T05:50:03;52.53;;;18.80;;
22916;SDS011;11624;53.250;7.456;2023-10-09T05:52:58;44.05;;;17.42;;
22916;SDS011;11624;53.250;7.456;2023-10-09T05:55:43;53.45;;;18.48;;
22916;SDS011;11624;53.250;7.456;2023-10-09T05:58:29;49.97;;;18.45;;
22916;SDS011;11624;53.250;7.456;2023-10-09T06:01:30;45.25;;;18.10;;
22916;SDS011;11624;53.250;7.456;2023-10-09T06:04:15;50.05;;;17.77;;
22916;SDS011;11624;53.250;7.456;2023-10-09T06:06:47;47.95;;;19.08;;
22916;SDS011;11624;53.250;7.456;2023-10-09T06:09:23;46.97;;;18.42;;
22916;SDS011;11624;53.250;7.456;2023-10-09T06:12:17;53.35;;;18.58;;
22916;SDS011;11624;53.250;7.456;2023-10-09T06:15:20;47.85;;;18.27;;
22916;SDS011;11624;53.250;7.456;2023-10-09T06:18:12;54.75;;;19.05;;
22916;SDS011;11624;53.250;7.456;2023-10-09T06:20:59;54.22;;;17.38;;
22916;SDS011;11624;53.250;7.456;2023-10-09T06:23:37;46.75;;;17.50;;
22916;SDS011;11624;53.250;7.456;2023-10-09T06:26:35;49.38;;;17.90;;
22916;SDS011;11624;53.250;7.456;2023-10-09T06:29:04;43.55;;;18.10;;
22916;SDS011;11624;53.250;7.456;2023-10-09T06:32:00;46.83;;;17.42;;
22916;SDS011;11624;53.250;7.456;2023-10-09T06:34:51;42.83;;;16.17;;
22916;SDS011;11624;53.250;7.456;2023-10-09T06:37:23;44.35;;;16.98;;
22916;SDS011;11624;53.250;7.456;2023-10-09T06:40:25;45.42;;;17.23;;
22916;SDS011;11624;53.250;7.456;2023-10-09T06:43:11;43.72;;;16.27;;
22916;SDS011;11624;53.250;7.456;2023-10-09T06:45:43;46.38;;;15.68;;
22916;SDS011;11624;53.250;7.456;2023-10-09T06:48:12;45.08;;;16.00;;
22916;SDS011;11624;53.250;7.456;2023-10-09T06:51:01;42.70;;;16.52;;
22916;SDS011;11624;53.250;7.456;2023-10-09T06:53:34;36.63;;;15.18;;
22916;SDS011;11624;53.250;7.456;2023-10-09T06:56:24;40.85;;;15.20;;
22916;SDS011;11624;53.250;7.456;2023-10-09T06:59:13;39.03;;;15.85;;
22916;SDS011;11624;53.250;7.456;2023-10-09T07:01:43;37.83;;;14.77;;
22916;SDS011;11624;53.250;7.456;2023-10-09T07:04:13;41.58;;;14.65;;
22916;SDS011;11624;53.250;7.456;2023-10-09T07:07:07;39.33;;;14.65;;
22916;SDS011;11624;53.250;7.456;2023-10-09T07:09:40;38.10;;;15.07;;
22916;SDS011;11624;53.250;7.456;2023-10-09T07:12:11;40.65;;;15.10;;
22916;SDS011;11624;53.250;7.456;2023-10-09T07:14:47;41.15;;;14.23;;
22916;SDS011;11624;53.250;7.456;2023-10-09T07:17:44;38.92;;;15.10;;
22916;SDS011;11624;53.250;7.456;2023-10-09T07:20:12;33.47;;;13.43;;
22916;SDS011;11624;53.250;7.456;2023-10-09T07:22:43;37.67;;;14.93;;
22916;SDS011;11624;53.250;7.456;2023-10-09T07:25:23;35.50;;;13.45;;
22916;SDS011;11624;53.250;7.456;2023-10-09T07:28:09;36.22;;;12.95;;
22916;SDS011;11624;53.250;7.456;2023-10-09T07:30:56;30.10;;;12.32;;
22916;SDS011;11624;53.250;7.456;2023-10-09T07:33:27;37.63;;;13.60;;
22916;SDS011;11624;53.250;7.456;2023-10-09T07:36:18;33.22;;;12.52;;
22916;SDS011;11624;53.250;7.456;2023-10-09T07:39:01;34.42;;;13.10;;
22916;SDS011;11624;53.250;7.456;2023-10-09T07:41:40;34.13;;;14.00;;
22916;SDS011;11624;53.250;7.456;2023-10-09T07:44:24;32.25;;;11.82;;
22916;SDS011;11624;53.250;7.456;2023-10-09T07:47:13;29.95;;;12.20;;
22916;SDS011;11624;53.250;7.456;2023-10-09T07:49:44;29.35;;;10.90;;
22916;SDS011;11624;53.250;7.456;2023-10-09T07:52:20;25.95;;;10.00;;
22916;SDS011;11624;53.250;7.456;2023-10-09T07:54:52;27.73;;;10.32;;
22916;SDS011;11624;53.250;7.456;2023-10-09T07:57:28;34.33;;;10.18;;
22916;SDS011;11624;53.250;7.456;2023-10-09T08:00:07;30.70;;;9.73;;
22916;SDS011;11624;53.250;7.456;2023-10-09T08:03:00;31.67;;;9.30;;
22916;SDS011;11624;53.250;7.456;2023-10-09T08:05:30;28.70;;;9.57;;
22916;SDS011;11624;53.250;7.456;2023-10-09T08:08:01;24.85;;;9.30;;
22916;SDS011;11624;53.250;7.456;2023-10-09T08:11:07;25.60;;;8.57;;
22916;SDS011;11624;53.250;7.456;2023-10-09T08:13:53;25.42;;;9.10;;
22916;SDS011;11624;53.250;7.456;2023-10-09T08:16:30;24.02;;;8.40;;
22916;SDS011;11624;53.250;7.456;2023-10-09T08:19:04;21.70;;;8.02;;
22916;SDS011;11624;53.250;7.456;2023-10-09T08:21:59;22.58;;;8.32;;
22916;SDS011;11624;53.250;7.456;2023-10-09T08:25:04;24.08;;;8.38;;
22916;SDS011;11624;53.250;7.456;2023-10-09T08:27:33;25.35;;;8.50;;
22916;SDS011;11624;53.250;7.456;2023-10-09T08:30:22;22.58;;;8.48;;
22916;SDS011;11624;53.250;7.456;2023-10-09T08:33:09;22.85;;;8.65;;
22916;SDS011;11624;53.250;7.456;2023-10-09T08:35:58;23.17;;;8.05;;
22916;SDS011;11624;53.250;7.456;2023-10-09T08:38:32;26.38;;;9.27;;
22916;SDS011;11624;53.250;7.456;2023-10-09T08:41:07;24.52;;;8.85;;
22916;SDS011;11624;53.250;7.456;2023-10-09T08:43:47;24.90;;;8.77;;
22916;SDS011;11624;53.250;7.456;2023-10-09T08:46:18;29.92;;;10.05;;
22916;SDS011;11624;53.250;7.456;2023-10-09T08:48:50;26.67;;;11.73;;
22916;SDS011;11624;53.250;7.456;2023-10-09T08:51:18;25.88;;;12.07;;
22916;SDS011;11624;53.250;7.456;2023-10-09T08:53:47;38.78;;;12.07;;
22916;SDS011;11624;53.250;7.456;2023-10-09T08:56:16;27.13;;;10.50;;
22916;SDS011;11624;53.250;7.456;2023-10-09T08:58:49;28.75;;;10.27;;
22916;SDS011;11624;53.250;7.456;2023-10-09T09:01:19;27.33;;;10.10;;
22916;SDS011;11624;53.250;7.456;2023-10-09T09:03:50;22.90;;;9.05;;
22916;SDS011;11624;53.250;7.456;2023-10-09T09:06:22;26.30;;;8.70;;
22916;SDS011;11624;53.250;7.456;2023-10-09T09:08:51;23.83;;;8.82;;
22916;SDS011;11624;53.250;7.456;2023-10-09T09:11:40;22.98;;;8.88;;
22916;SDS011;11624;53.250;7.456;2023-10-09T09:14:15;23.50;;;8.65;;
22916;SDS011;11624;53.250;7.456;2023-10-09T09:16:48;21.50;;;8.10;;
22916;SDS011;11624;53.250;7.456;2023-10-09T09:19:20;21.23;;;8.20;;
22916;SDS011;11624;53.250;7.456;2023-10-09T09:21:59;21.52;;;8.63;;
22916;SDS011;11624;53.250;7.456;2023-10-09T09:24:38;18.88;;;7.63;;
22916;SDS011;11624;53.250;7.456;2023-10-09T09:27:12;21.45;;;7.38;;
22916;SDS011;11624;53.250;7.456;2023-10-09T09:29:45;25.52;;;8.25;;
22916;SDS011;11624;53.250;7.456;2023-10-09T09:32:27;22.02;;;7.75;;
22916;SDS011;11624;53.250;7.456;2023-10-09T09:35:04;17.65;;;7.50;;
22916;SDS011;11624;53.250;7.456;2023-10-09T09:37:51;20.23;;;7.95;;
22916;SDS011;11624;53.250;7.456;2023-10-09T09:40:21;23.83;;;8.73;;
22916;SDS011;11624;53.250;7.456;2023-10-09T09:43:01;24.70;;;7.95;;
22916;SDS011;11624;53.250;7.456;2023-10-09T09:45:34;23.38;;;8.10;;
22916;SDS011;11624;53.250;7.456;2023-10-09T09:48:04;25.02;;;8.38;;
22916;SDS011;11624;53.250;7.456;2023-10-09T09:50:35;28.25;;;8.43;;
22916;SDS011;11624;53.250;7.456;2023-10-09T09:53:10;19.52;;;7.65;;
22916;SDS011;11624;53.250;7.456;2023-10-09T09:55:45;23.20;;;8.40;;
22916;SDS011;11624;53.250;7.456;2023-10-09T09:58:23;20.25;;;7.70;;
22916;SDS011;11624;53.250;7.456;2023-10-09T10:00:56;24.52;;;7.78;;
22916;SDS011;11624;53.250;7.456;2023-10-09T10:03:36;22.17;;;9.73;;
22916;SDS011;11624;53.250;7.456;2023-10-09T10:06:11;26.20;;;11.30;;
22916;SDS011;11624;53.250;7.456;2023-10-09T10:08:47;35.28;;;12.27;;
22916;SDS011;11624;53.250;7.456;2023-10-09T10:14:12;21.58;;;9.73;;
22916;SDS011;11624;53.250;7.456;2023-10-09T10:17:03;25.23;;;8.95;;
22916;SDS011;11624;53.250;7.456;2023-10-09T10:22:50;19.15;;;7.53;;
22916;SDS011;11624;53.250;7.456;2023-10-09T10:25:31;24.08;;;7.20;;
22916;SDS011;11624;53.250;7.456;2023-10-09T10:28:15;19.45;;;6.32;;
22916;SDS011;11624;53.250;7.456;2023-10-09T10:30:55;16.67;;;6.03;;
22916;SDS011;11624;53.250;7.456;2023-10-09T10:33:27;22.75;;;6.65;;
22916;SDS011;11624;53.250;7.456;2023-10-09T10:36:19;15.18;;;5.68;;
22916;SDS011;11624;53.250;7.456;2023-10-09T10:38:59;22.83;;;6.25;;
22916;SDS011;11624;53.250;7.456;2023-10-09T10:41:36;18.02;;;6.80;;
22916;SDS011;11624;53.250;7.456;2023-10-09T10:44:27;19.70;;;6.30;;
22916;SDS011;11624;53.250;7.456;2023-10-09T10:47:04;23.13;;;6.20;;
22916;SDS011;11624;53.250;7.456;2023-10-09T10:49:49;19.65;;;6.95;;
22916;SDS011;11624;53.250;7.456;2023-10-09T10:52:25;19.38;;;6.65;;
22916;SDS011;11624;53.250;7.456;2023-10-09T10:55:11;18.95;;;6.50;;
22916;SDS011;11624;53.250;7.456;2023-10-09T10:58:01;15.10;;;5.90;;
22916;SDS011;11624;53.250;7.456;2023-10-09T11:00:37;17.35;;;5.78;;
22916;SDS011;11624;53.250;7.456;2023-10-09T11:03:23;18.85;;;5.70;;
22916;SDS011;11624;53.250;7.456;2023-10-09T11:06:02;17.67;;;5.03;;
22916;SDS011;11624;53.250;7.456;2023-10-09T11:08:43;17.73;;;5.95;;
22916;SDS011;11624;53.250;7.456;2023-10-09T11:11:23;17.15;;;4.82;;
22916;SDS011;11624;53.250;7.456;2023-10-09T11:14:07;15.38;;;4.85;;
22916;SDS011;11624;53.250;7.456;2023-10-09T11:16:41;11.77;;;3.38;;
22916;SDS011;11624;53.250;7.456;2023-10-09T11:19:11;16.08;;;4.10;;
22916;SDS011;11624;53.250;7.456;2023-10-09T11:21:50;15.85;;;3.38;;
22916;SDS011;11624;53.250;7.456;2023-10-09T11:24:26;14.07;;;3.40;;
22916;SDS011;11624;53.250;7.456;2023-10-09T11:27:01;17.13;;;3.10;;
22916;SDS011;11624;53.250;7.456;2023-10-09T11:29:33;1.23;;;1.02;;
22916;SDS011;11624;53.250;7.456;2023-10-09T11:32:16;1.80;;;0.98;;
22916;SDS011;11624;53.250;7.456;2023-10-09T11:34:46;0.10;;;0.10;;
22916;SDS011;11624;53.250;7.456;2023-10-09T11:37:19;2.03;;;1.00;;
22916;SDS011;11624;53.250;7.456;2023-10-09T11:40:05;0.30;;;0.30;;
22916;SDS011;11624;53.250;7.456;2023-10-09T11:42:51;1.70;;;0.65;;
22916;SDS011;11624;53.250;7.456;2023-10-09T11:45:25;0.70;;;0.40;;
22916;SDS011;11624;53.250;7.456;2023-10-09T11:47:57;0.47;;;0.30;;
22916;SDS011;11624;53.250;7.456;2023-10-09T11:50:39;0.50;;;0.50;;
22916;SDS011;11624;53.250;7.456;2023-10-09T11:53:10;1.80;;;0.73;;
22916;SDS011;11624;53.250;7.456;2023-10-09T11:56:00;0.57;;;0.52;;
22916;SDS011;11624;53.250;7.456;2023-10-09T11:58:30;0.47;;;0.40;;
22916;SDS011;11624;53.250;7.456;2023-10-09T12:00:58;0.38;;;0.38;;
22916;SDS011;11624;53.250;7.456;2023-10-09T12:03:32;1.90;;;0.77;;
22916;SDS011;11624;53.250;7.456;2023-10-09T12:06:01;0.63;;;0.40;;
22916;SDS011;11624;53.250;7.456;2023-10-09T12:08:33;1.25;;;0.82;;
22916;SDS011;11624;53.250;7.456;2023-10-09T12:11:02;0.70;;;0.47;;
22916;SDS011;11624;53.250;7.456;2023-10-09T12:13:37;0.20;;;0.20;;
22916;SDS011;11624;53.250;7.456;2023-10-09T12:16:06;0.55;;;0.55;;
22916;SDS011;11624;53.250;7.456;2023-10-09T12:18:37;0.43;;;0.30;;
22916;SDS011;11624;53.250;7.456;2023-10-09T12:21:06;8.20;;;1.48;;
22916;SDS011;11624;53.250;7.456;2023-10-09T12:23:34;1.55;;;0.75;;
22916;SDS011;11624;53.250;7.456;2023-10-09T12:26:03;0.47;;;0.40;;
22916;SDS011;11624;53.250;7.456;2023-10-09T12:28:32;0.88;;;0.55;;
22916;SDS011;11624;53.250;7.456;2023-10-09T12:31:02;0.20;;;0.20;;
22916;SDS011;11624;53.250;7.456;2023-10-09T12:33:31;1.23;;;0.82;;
22916;SDS011;11624;53.250;7.456;2023-10-09T12:35:59;0.88;;;0.50;;
22916;SDS011;11624;53.250;7.456;2023-10-09T12:38:28;0.82;;;0.50;;
22916;SDS011;11624;53.250;7.456;2023-10-09T12:41:03;0.43;;;0.30;;
22916;SDS011;11624;53.250;7.456;2023-10-09T12:43:46;1.55;;;1.00;;
22916;SDS011;11624;53.250;7.456;2023-10-09T12:46:16;2.47;;;0.88;;
22916;SDS011;11624;53.250;7.456;2023-10-09T12:48:44;2.17;;;1.17;;
22916;SDS011;11624;53.250;7.456;2023-10-09T12:51:13;0.90;;;0.65;;
22916;SDS011;11624;53.250;7.456;2023-10-09T12:53:43;1.48;;;0.93;;
22916;SDS011;11624;53.250;7.456;2023-10-09T12:56:15;1.35;;;0.75;;
22916;SDS011;11624;53.250;7.456;2023-10-09T12:58:45;0.45;;;0.38;;
22916;SDS011;11624;53.250;7.456;2023-10-09T13:01:21;1.35;;;0.63;;
22916;SDS011;11624;53.250;7.456;2023-10-09T13:03:50;1.02;;;0.93;;
22916;SDS011;11624;53.250;7.456;2023-10-09T13:06:18;4.38;;;0.98;;
22916;SDS011;11624;53.250;7.456;2023-10-09T13:08:51;1.27;;;0.40;;
22916;SDS011;11624;53.250;7.456;2023-10-09T13:11:19;0.88;;;0.77;;
22916;SDS011;11624;53.250;7.456;2023-10-09T13:13:48;0.32;;;0.22;;
22916;SDS011;11624;53.250;7.456;2023-10-09T13:16:18;0.75;;;0.60;;
22916;SDS011;11624;53.250;7.456;2023-10-09T13:18:52;3.42;;;1.13;;
22916;SDS011;11624;53.250;7.456;2023-10-09T13:21:22;2.40;;;0.77;;
22916;SDS011;11624;53.250;7.456;2023-10-09T13:23:52;0.65;;;0.50;;
22916;SDS011;11624;53.250;7.456;2023-10-09T13:26:22;0.55;;;0.52;;
22916;SDS011;11624;53.250;7.456;2023-10-09T13:29:00;0.90;;;0.55;;
22916;SDS011;11624;53.250;7.456;2023-10-09T13:31:31;0.93;;;0.52;;
22916;SDS011;11624;53.250;7.456;2023-10-09T13:34:03;1.13;;;0.57;;
22916;SDS011;11624;53.250;7.456;2023-10-09T13:36:36;0.28;;;0.28;;
22916;SDS011;11624;53.250;7.456;2023-10-09T13:39:04;0.73;;;0.50;;
22916;SDS011;11624;53.250;7.456;2023-10-09T13:41:49;1.55;;;0.65;;
22916;SDS011;11624;53.250;7.456;2023-10-09T13:44:25;0.90;;;0.40;;
22916;SDS011;11624;53.250;7.456;2023-10-09T13:46:54;1.05;;;0.73;;
22916;SDS011;11624;53.250;7.456;2023-10-09T13:49:25;1.27;;;0.73;;
22916;SDS011;11624;53.250;7.456;2023-10-09T13:51:57;0.82;;;0.68;;
22916;SDS011;11624;53.250;7.456;2023-10-09T13:54:26;1.30;;;0.60;;
22916;SDS011;11624;53.250;7.456;2023-10-09T13:57:06;0.35;;;0.35;;
22916;SDS011;11624;53.250;7.456;2023-10-09T13:59:37;1.00;;;0.57;;
22916;SDS011;11624;53.250;7.456;2023-10-09T14:02:10;4.38;;;0.60;;
22916;SDS011;11624;53.250;7.456;2023-10-09T14:04:46;0.10;;;0.10;;
22916;SDS011;11624;53.250;7.456;2023-10-09T14:07:16;0.00;;;0.00;;
22916;SDS011;11624;53.250;7.456;2023-10-09T14:09:47;1.02;;;0.80;;
22916;SDS011;11624;53.250;7.456;2023-10-09T14:12:34;0.13;;;0.13;;
22916;SDS011;11624;53.250;7.456;2023-10-09T14:15:07;0.55;;;0.55;;
22916;SDS011;11624;53.250;7.456;2023-10-09T14:17:43;0.20;;;0.15;;
22916;SDS011;11624;53.250;7.456;2023-10-09T14:20:15;0.70;;;0.55;;
22916;SDS011;11624;53.250;7.456;2023-10-09T14:22:58;6.05;;;1.55;;
22916;SDS011;11624;53.250;7.456;2023-10-09T14:25:33;2.60;;;1.00;;
22916;SDS011;11624;53.250;7.456;2023-10-09T14:28:04;0.73;;;0.65;;
22916;SDS011;11624;53.250;7.456;2023-10-09T14:30:35;0.32;;;0.30;;
22916;SDS011;11624;53.250;7.456;2023-10-09T14:33:08;1.35;;;0.65;;
22916;SDS011;11624;53.250;7.456;2023-10-09T14:35:41;0.10;;;0.10;;
22916;SDS011;11624;53.250;7.456;2023-10-09T14:38:11;0.90;;;0.70;;
22916;SDS011;11624;53.250;7.456;2023-10-09T14:40:43;0.17;;;0.17;;
22916;SDS011;11624;53.250;7.456;2023-10-09T14:43:12;1.77;;;0.75;;
22916;SDS011;11624;53.250;7.456;2023-10-09T14:45:46;1.35;;;0.75;;
22916;SDS011;11624;53.250;7.456;2023-10-09T14:48:16;3.45;;;1.45;;
22916;SDS011;11624;53.250;7.456;2023-10-09T14:50:47;0.28;;;0.28;;
22916;SDS011;11624;53.250;7.456;2023-10-09T14:53:19;0.40;;;0.30;;
22916;SDS011;11624;53.250;7.456;2023-10-09T14:55:53;11.65;;;2.00;;
22916;SDS011;11624;53.250;7.456;2023-10-09T14:58:22;9.82;;;2.30;;
22916;SDS011;11624;53.250;7.456;2023-10-09T15:00:52;15.25;;;2.47;;
22916;SDS011;11624;53.250;7.456;2023-10-09T15:03:21;10.55;;;2.28;;
22916;SDS011;11624;53.250;7.456;2023-10-09T15:05:51;9.60;;;2.25;;
22916;SDS011;11624;53.250;7.456;2023-10-09T15:08:21;9.57;;;1.88;;
22916;SDS011;11624;53.250;7.456;2023-10-09T15:10:50;10.38;;;2.40;;
22916;SDS011;11624;53.250;7.456;2023-10-09T15:13:22;6.60;;;1.73;;
22916;SDS011;11624;53.250;7.456;2023-10-09T15:15:55;12.23;;;2.40;;
22916;SDS011;11624;53.250;7.456;2023-10-09T15:18:23;11.93;;;2.10;;
22916;SDS011;11624;53.250;7.456;2023-10-09T15:20:53;10.95;;;2.10;;
22916;SDS011;11624;53.250;7.456;2023-10-09T15:23:21;6.43;;;1.90;;
22916;SDS011;11624;53.250;7.456;2023-10-09T15:25:50;20.60;;;2.92;;
22916;SDS011;11624;53.250;7.456;2023-10-09T15:28:19;7.10;;;2.10;;
22916;SDS011;11624;53.250;7.456;2023-10-09T15:30:50;11.40;;;2.05;;
22916;SDS011;11624;53.250;7.456;2023-10-09T15:33:19;9.40;;;2.22;;